Погода Псейтукна 2 недели

Республика Адыгея, Россия

16 - 28 июля
  • 16июля
    Сегодня
    +26°
    +40°
    Небольшая облачность
    ВремяПогодаТемператураВлажностьДавлениеВетер, м/сВероятность осадков
    00:00Облачно с прояснениями+28°C27 %754 мм4.4 м/с2 %
    03:00Облачно с прояснениями+25°C33 %754 мм3.2 м/с2 %
    06:00Облачно с прояснениями+25°C38 %754 мм2.1 м/с2 %
    09:00Ясно и безоблачно+32°C28 %755 мм2.2 м/с2 %
    12:00Ясно и безоблачно+38°C18 %754 мм4.7 м/с2 %
    15:00Небольшая облачность+39°C17 %753 мм5.3 м/с2 %
    18:00Ясно и безоблачно+38°C17 %753 мм4.9 м/с2 %
    21:00Ясно и безоблачно+32°C23 %753 мм4.6 м/с2 %
  • 17июля
    Среда
    +27°
    +41°
    Небольшая облачность
    ВремяПогодаТемператураВлажностьДавлениеВетер, м/сВероятность осадков
    00:00Практически безоблачно+29°C26 %754 мм4.2 м/с2 %
    03:00Ясно и безоблачно+27°C31 %754 мм3.3 м/с2 %
    06:00Ясно и безоблачно+26°C37 %755 мм2.3 м/с2 %
    09:00Ясно и безоблачно+34°C28 %755 мм2.5 м/с2 %
    12:00Практически безоблачно+40°C17 %755 мм5.8 м/с2 %
    15:00Небольшая облачность+40°C18 %754 мм5.5 м/с2 %
    18:00Практически безоблачно+39°C17 %753 мм5.0 м/с2 %
    21:00Ясно и безоблачно+34°C22 %754 мм4.9 м/с2 %
  • 18июля
    Четверг
    +25°
    +40°
    Ясно и безоблачно
    ВремяПогодаТемператураВлажностьДавлениеВетер, м/сВероятность осадков
    00:00Ясно и безоблачно+31°C24 %755 мм4.7 м/с2 %
    03:00Ясно и безоблачно+29°C27 %755 мм4.6 м/с2 %
    06:00Ясно и безоблачно+28°C32 %755 мм3.5 м/с2 %
    09:00Ясно и безоблачно+35°C23 %756 мм4.2 м/с2 %
    12:00Ясно и безоблачно+39°C18 %755 мм6.4 м/с2 %
    15:00Ясно и безоблачно+40°C16 %754 мм5.9 м/с2 %
    18:00Ясно и безоблачно+39°C17 %754 мм5.7 м/с2 %
    21:00Ясно и безоблачно+32°C23 %755 мм3.0 м/с2 %
  • 19июля
    Пятница
    +26°
    +41°
    Практически безоблачно
    ВремяПогодаТемператураВлажностьДавлениеВетер, м/сВероятность осадков
    00:00Ясно и безоблачно+28°C30 %755 мм2.4 м/с2 %
    03:00Ясно и безоблачно+25°C38 %754 мм2.3 м/с2 %
    06:00Ясно и безоблачно+25°C43 %754 мм1.4 м/с2 %
    09:00Ясно и безоблачно+34°C25 %754 мм1.3 м/с2 %
    12:00Ясно и безоблачно+39°C17 %753 мм3.6 м/с2 %
    15:00Практически безоблачно+40°C16 %752 мм3.1 м/с3 %
    18:00Облачно с прояснениями+37°C21 %751 мм3.8 м/с3 %
    21:00Ясно и безоблачно+32°C34 %753 мм4.1 м/с2 %
Мы используем cookies
Соглашаюсь